sensor_id;sensor_type;location;lat;lon;timestamp;temperature;humidity
14049;DHT22;7099;53.922;10.728;2022-11-23T00:02:38;3.70;99.90
14049;DHT22;7099;53.922;10.728;2022-11-23T00:06:43;3.70;99.90
14049;DHT22;7099;53.922;10.728;2022-11-23T00:10:48;3.70;99.90
14049;DHT22;7099;53.922;10.728;2022-11-23T00:14:53;3.70;99.90
14049;DHT22;7099;53.922;10.728;2022-11-23T00:18:59;3.70;99.90
14049;DHT22;7099;53.922;10.728;2022-11-23T00:23:05;3.70;99.90
14049;DHT22;7099;53.922;10.728;2022-11-23T00:27:09;3.70;99.90
14049;DHT22;7099;53.922;10.728;2022-11-23T00:31:16;3.70;99.90
14049;DHT22;7099;53.922;10.728;2022-11-23T00:35:23;3.70;99.90
14049;DHT22;7099;53.922;10.728;2022-11-23T00:39:27;3.80;99.90
14049;DHT22;7099;53.922;10.728;2022-11-23T00:43:33;3.80;99.90
14049;DHT22;7099;53.922;10.728;2022-11-23T00:47:38;3.80;99.90
14049;DHT22;7099;53.922;10.728;2022-11-23T00:51:43;3.80;99.90
14049;DHT22;7099;53.922;10.728;2022-11-23T00:55:52;3.80;99.90
14049;DHT22;7099;53.922;10.728;2022-11-23T00:59:58;3.90;99.90
14049;DHT22;7099;53.922;10.728;2022-11-23T01:04:05;3.80;99.90
14049;DHT22;7099;53.922;10.728;2022-11-23T01:08:11;3.80;99.90
14049;DHT22;7099;53.922;10.728;2022-11-23T01:12:16;3.80;99.90
14049;DHT22;7099;53.922;10.728;2022-11-23T01:16:26;3.80;99.90
14049;DHT22;7099;53.922;10.728;2022-11-23T01:20:33;3.90;99.90
14049;DHT22;7099;53.922;10.728;2022-11-23T01:24:38;3.90;99.90
14049;DHT22;7099;53.922;10.728;2022-11-23T01:28:43;3.90;99.90
14049;DHT22;7099;53.922;10.728;2022-11-23T01:32:48;3.90;99.90
14049;DHT22;7099;53.922;10.728;2022-11-23T01:36:53;3.90;99.90
14049;DHT22;7099;53.922;10.728;2022-11-23T01:40:58;3.90;99.90
14049;DHT22;7099;53.922;10.728;2022-11-23T01:49:44;4.00;99.90
14049;DHT22;7099;53.922;10.728;2022-11-23T01:53:52;4.00;99.90
14049;DHT22;7099;53.922;10.728;2022-11-23T01:57:58;4.00;99.90
14049;DHT22;7099;53.922;10.728;2022-11-23T02:02:04;4.00;99.90
14049;DHT22;7099;53.922;10.728;2022-11-23T02:06:13;4.00;99.90
14049;DHT22;7099;53.922;10.728;2022-11-23T02:10:20;4.00;99.90
14049;DHT22;7099;53.922;10.728;2022-11-23T02:14:26;3.90;99.90
14049;DHT22;7099;53.922;10.728;2022-11-23T02:18:33;4.00;99.90
14049;DHT22;7099;53.922;10.728;2022-11-23T02:23:15;4.00;99.90
14049;DHT22;7099;53.922;10.728;2022-11-23T02:27:31;4.00;99.90
14049;DHT22;7099;53.922;10.728;2022-11-23T02:31:37;4.00;99.90
14049;DHT22;7099;53.922;10.728;2022-11-23T02:35:50;4.00;99.90
14049;DHT22;7099;53.922;10.728;2022-11-23T02:39:57;4.00;99.90
14049;DHT22;7099;53.922;10.728;2022-11-23T02:44:03;4.00;99.90
14049;DHT22;7099;53.922;10.728;2022-11-23T02:48:11;4.00;99.90
14049;DHT22;7099;53.922;10.728;2022-11-23T02:52:17;4.00;99.90
14049;DHT22;7099;53.922;10.728;2022-11-23T02:56:22;4.00;99.90
14049;DHT22;7099;53.922;10.728;2022-11-23T03:00:27;4.00;99.90
14049;DHT22;7099;53.922;10.728;2022-11-23T03:04:32;4.10;99.90
14049;DHT22;7099;53.922;10.728;2022-11-23T03:08:37;4.10;99.90
14049;DHT22;7099;53.922;10.728;2022-11-23T03:12:42;4.10;99.90
14049;DHT22;7099;53.922;10.728;2022-11-23T03:16:47;4.10;99.90
14049;DHT22;7099;53.922;10.728;2022-11-23T03:20:52;4.10;99.90
14049;DHT22;7099;53.922;10.728;2022-11-23T03:24:57;4.10;99.90
14049;DHT22;7099;53.922;10.728;2022-11-23T03:29:02;4.10;99.90
14049;DHT22;7099;53.922;10.728;2022-11-23T03:33:07;4.10;99.90
14049;DHT22;7099;53.922;10.728;2022-11-23T03:37:12;4.10;99.90
14049;DHT22;7099;53.922;10.728;2022-11-23T03:41:16;4.10;99.90
14049;DHT22;7099;53.922;10.728;2022-11-23T03:45:21;4.20;99.90
14049;DHT22;7099;53.922;10.728;2022-11-23T03:49:26;4.20;99.90
14049;DHT22;7099;53.922;10.728;2022-11-23T03:53:31;4.20;99.90
14049;DHT22;7099;53.922;10.728;2022-11-23T03:57:36;4.10;99.90
14049;DHT22;7099;53.922;10.728;2022-11-23T04:01:41;4.20;99.90
14049;DHT22;7099;53.922;10.728;2022-11-23T04:05:46;4.20;99.90
14049;DHT22;7099;53.922;10.728;2022-11-23T04:09:50;4.30;99.90
14049;DHT22;7099;53.922;10.728;2022-11-23T04:13:55;4.30;99.90
14049;DHT22;7099;53.922;10.728;2022-11-23T04:18:00;4.30;99.90
14049;DHT22;7099;53.922;10.728;2022-11-23T04:22:05;4.30;99.90
14049;DHT22;7099;53.922;10.728;2022-11-23T04:26:10;4.30;99.90
14049;DHT22;7099;53.922;10.728;2022-11-23T04:30:15;4.40;99.90
14049;DHT22;7099;53.922;10.728;2022-11-23T04:34:20;4.40;99.90
14049;DHT22;7099;53.922;10.728;2022-11-23T04:38:25;4.40;99.90
14049;DHT22;7099;53.922;10.728;2022-11-23T04:42:29;4.40;99.90
14049;DHT22;7099;53.922;10.728;2022-11-23T04:46:34;4.40;99.90
14049;DHT22;7099;53.922;10.728;2022-11-23T04:50:39;4.40;99.90
14049;DHT22;7099;53.922;10.728;2022-11-23T04:54:50;4.40;99.90
14049;DHT22;7099;53.922;10.728;2022-11-23T04:58:55;4.50;99.90
14049;DHT22;7099;53.922;10.728;2022-11-23T05:03:00;4.50;99.90
14049;DHT22;7099;53.922;10.728;2022-11-23T05:07:05;4.50;99.90
14049;DHT22;7099;53.922;10.728;2022-11-23T05:11:10;4.50;99.90
14049;DHT22;7099;53.922;10.728;2022-11-23T05:15:15;4.60;99.90
14049;DHT22;7099;53.922;10.728;2022-11-23T05:19:19;4.60;99.90
14049;DHT22;7099;53.922;10.728;2022-11-23T05:23:24;4.60;99.90
14049;DHT22;7099;53.922;10.728;2022-11-23T05:27:29;4.60;99.90
14049;DHT22;7099;53.922;10.728;2022-11-23T05:31:34;4.60;99.90
14049;DHT22;7099;53.922;10.728;2022-11-23T05:35:39;4.60;99.90
14049;DHT22;7099;53.922;10.728;2022-11-23T05:39:44;4.70;99.90
14049;DHT22;7099;53.922;10.728;2022-11-23T05:43:49;4.70;99.90
14049;DHT22;7099;53.922;10.728;2022-11-23T05:47:54;4.70;99.90
14049;DHT22;7099;53.922;10.728;2022-11-23T05:52:01;4.70;99.90
14049;DHT22;7099;53.922;10.728;2022-11-23T05:56:05;4.70;99.90
14049;DHT22;7099;53.922;10.728;2022-11-23T06:00:10;4.70;99.90
14049;DHT22;7099;53.922;10.728;2022-11-23T06:04:15;4.70;99.90
14049;DHT22;7099;53.922;10.728;2022-11-23T06:08:20;4.70;99.90
14049;DHT22;7099;53.922;10.728;2022-11-23T06:12:26;4.70;99.90
14049;DHT22;7099;53.922;10.728;2022-11-23T06:16:32;4.80;99.90
14049;DHT22;7099;53.922;10.728;2022-11-23T06:20:36;4.80;99.90
14049;DHT22;7099;53.922;10.728;2022-11-23T06:24:41;4.80;99.90
14049;DHT22;7099;53.922;10.728;2022-11-23T06:28:46;4.80;99.90
14049;DHT22;7099;53.922;10.728;2022-11-23T06:32:51;4.80;99.90
14049;DHT22;7099;53.922;10.728;2022-11-23T06:36:56;4.80;99.90
14049;DHT22;7099;53.922;10.728;2022-11-23T06:41:01;4.90;99.90
14049;DHT22;7099;53.922;10.728;2022-11-23T06:45:08;4.90;99.90
14049;DHT22;7099;53.922;10.728;2022-11-23T06:49:13;4.90;99.90
14049;DHT22;7099;53.922;10.728;2022-11-23T06:53:18;4.90;99.90
14049;DHT22;7099;53.922;10.728;2022-11-23T06:57:23;5.00;99.90
14049;DHT22;7099;53.922;10.728;2022-11-23T07:01:28;5.00;99.90
14049;DHT22;7099;53.922;10.728;2022-11-23T07:05:33;5.00;99.90
14049;DHT22;7099;53.922;10.728;2022-11-23T07:09:38;5.00;99.90
14049;DHT22;7099;53.922;10.728;2022-11-23T07:13:42;5.00;99.90
14049;DHT22;7099;53.922;10.728;2022-11-23T07:17:47;5.00;99.90
14049;DHT22;7099;53.922;10.728;2022-11-23T07:21:52;5.10;99.90
14049;DHT22;7099;53.922;10.728;2022-11-23T07:25:57;5.10;99.90
14049;DHT22;7099;53.922;10.728;2022-11-23T07:30:04;5.10;99.90
14049;DHT22;7099;53.922;10.728;2022-11-23T07:34:09;5.10;99.90
14049;DHT22;7099;53.922;10.728;2022-11-23T07:38:14;5.20;99.90
14049;DHT22;7099;53.922;10.728;2022-11-23T07:42:19;5.20;99.90
14049;DHT22;7099;53.922;10.728;2022-11-23T07:46:44;5.20;99.90
14049;DHT22;7099;53.922;10.728;2022-11-23T07:50:53;5.20;99.90
14049;DHT22;7099;53.922;10.728;2022-11-23T07:54:58;5.30;99.90
14049;DHT22;7099;53.922;10.728;2022-11-23T07:59:04;5.20;99.90
14049;DHT22;7099;53.922;10.728;2022-11-23T08:03:12;5.30;99.90
14049;DHT22;7099;53.922;10.728;2022-11-23T08:07:34;5.20;99.90
14049;DHT22;7099;53.922;10.728;2022-11-23T08:11:39;5.20;99.90
14049;DHT22;7099;53.922;10.728;2022-11-23T08:15:44;5.20;99.90
14049;DHT22;7099;53.922;10.728;2022-11-23T08:19:57;5.30;99.90
14049;DHT22;7099;53.922;10.728;2022-11-23T08:24:02;5.30;99.90
14049;DHT22;7099;53.922;10.728;2022-11-23T08:28:07;5.40;99.90
14049;DHT22;7099;53.922;10.728;2022-11-23T08:32:12;5.40;99.90
14049;DHT22;7099;53.922;10.728;2022-11-23T08:36:17;5.50;99.90
14049;DHT22;7099;53.922;10.728;2022-11-23T08:40:22;5.50;99.90
14049;DHT22;7099;53.922;10.728;2022-11-23T08:44:29;5.50;99.90
14049;DHT22;7099;53.922;10.728;2022-11-23T08:48:34;5.60;99.90
14049;DHT22;7099;53.922;10.728;2022-11-23T08:52:39;5.60;99.90
14049;DHT22;7099;53.922;10.728;2022-11-23T08:56:44;5.70;99.90
14049;DHT22;7099;53.922;10.728;2022-11-23T09:00:49;5.70;99.90
14049;DHT22;7099;53.922;10.728;2022-11-23T09:04:54;5.70;99.90
14049;DHT22;7099;53.922;10.728;2022-11-23T09:08:59;5.80;99.90
14049;DHT22;7099;53.922;10.728;2022-11-23T09:13:04;5.80;99.90
14049;DHT22;7099;53.922;10.728;2022-11-23T09:17:09;5.80;99.90
14049;DHT22;7099;53.922;10.728;2022-11-23T09:21:14;5.80;99.90
14049;DHT22;7099;53.922;10.728;2022-11-23T09:25:20;5.80;99.90
14049;DHT22;7099;53.922;10.728;2022-11-23T09:29:26;5.80;99.90
14049;DHT22;7099;53.922;10.728;2022-11-23T09:33:31;5.90;99.90
14049;DHT22;7099;53.922;10.728;2022-11-23T09:37:36;5.90;99.90
14049;DHT22;7099;53.922;10.728;2022-11-23T09:46:38;6.10;99.90
14049;DHT22;7099;53.922;10.728;2022-11-23T09:51:04;6.10;99.90
14049;DHT22;7099;53.922;10.728;2022-11-23T09:55:41;6.10;99.90
14049;DHT22;7099;53.922;10.728;2022-11-23T10:00:06;6.30;99.90
14049;DHT22;7099;53.922;10.728;2022-11-23T10:04:17;6.40;99.90
14049;DHT22;7099;53.922;10.728;2022-11-23T10:08:37;6.50;99.90
14049;DHT22;7099;53.922;10.728;2022-11-23T10:13:08;6.60;99.90
14049;DHT22;7099;53.922;10.728;2022-11-23T10:17:28;6.60;99.90
14049;DHT22;7099;53.922;10.728;2022-11-23T10:22:00;6.70;99.90
14049;DHT22;7099;53.922;10.728;2022-11-23T10:26:18;6.70;99.90
14049;DHT22;7099;53.922;10.728;2022-11-23T10:30:25;6.70;99.90
14049;DHT22;7099;53.922;10.728;2022-11-23T10:38:41;6.80;99.90
14049;DHT22;7099;53.922;10.728;2022-11-23T10:42:51;7.00;99.90
14049;DHT22;7099;53.922;10.728;2022-11-23T10:46:58;7.00;99.90
14049;DHT22;7099;53.922;10.728;2022-11-23T10:51:26;7.10;99.90
14049;DHT22;7099;53.922;10.728;2022-11-23T10:55:52;7.20;99.90
14049;DHT22;7099;53.922;10.728;2022-11-23T11:04:21;7.20;99.90
14049;DHT22;7099;53.922;10.728;2022-11-23T11:08:30;7.30;99.90
14049;DHT22;7099;53.922;10.728;2022-11-23T11:12:50;7.20;99.90
14049;DHT22;7099;53.922;10.728;2022-11-23T11:16:56;7.30;99.90
14049;DHT22;7099;53.922;10.728;2022-11-23T11:21:18;7.30;99.90
14049;DHT22;7099;53.922;10.728;2022-11-23T11:25:29;7.30;99.90
14049;DHT22;7099;53.922;10.728;2022-11-23T11:29:45;7.30;99.90
14049;DHT22;7099;53.922;10.728;2022-11-23T11:42:38;7.40;99.90
14049;DHT22;7099;53.922;10.728;2022-11-23T11:47:33;7.50;99.90
14049;DHT22;7099;53.922;10.728;2022-11-23T11:51:39;7.50;99.90
14049;DHT22;7099;53.922;10.728;2022-11-23T11:55:52;7.60;99.90
14049;DHT22;7099;53.922;10.728;2022-11-23T12:00:00;7.60;99.90
14049;DHT22;7099;53.922;10.728;2022-11-23T12:04:14;7.60;99.90
14049;DHT22;7099;53.922;10.728;2022-11-23T12:13:27;7.70;99.90
14049;DHT22;7099;53.922;10.728;2022-11-23T12:35:10;7.90;99.90
14049;DHT22;7099;53.922;10.728;2022-11-23T12:44:43;7.90;99.90
14049;DHT22;7099;53.922;10.728;2022-11-23T13:02:58;8.10;99.90
14049;DHT22;7099;53.922;10.728;2022-11-23T13:07:31;8.20;99.90
14049;DHT22;7099;53.922;10.728;2022-11-23T13:33:55;8.30;99.90
14049;DHT22;7099;53.922;10.728;2022-11-23T13:42:09;8.20;99.90
14049;DHT22;7099;53.922;10.728;2022-11-23T13:50:26;8.20;99.90
14049;DHT22;7099;53.922;10.728;2022-11-23T13:54:31;8.20;99.90
14049;DHT22;7099;53.922;10.728;2022-11-23T13:58:38;8.20;99.90
14049;DHT22;7099;53.922;10.728;2022-11-23T14:02:44;8.20;99.90
14049;DHT22;7099;53.922;10.728;2022-11-23T14:07:04;8.20;99.90
14049;DHT22;7099;53.922;10.728;2022-11-23T14:11:16;8.10;99.90
14049;DHT22;7099;53.922;10.728;2022-11-23T14:15:35;8.00;99.90
14049;DHT22;7099;53.922;10.728;2022-11-23T14:20:11;8.10;99.90
14049;DHT22;7099;53.922;10.728;2022-11-23T14:24:59;8.10;99.90
14049;DHT22;7099;53.922;10.728;2022-11-23T14:34:01;8.00;99.90
14049;DHT22;7099;53.922;10.728;2022-11-23T14:42:42;8.00;99.90
14049;DHT22;7099;53.922;10.728;2022-11-23T14:47:02;8.00;99.90
14049;DHT22;7099;53.922;10.728;2022-11-23T14:51:21;7.90;99.90
14049;DHT22;7099;53.922;10.728;2022-11-23T14:55:28;7.90;99.90
14049;DHT22;7099;53.922;10.728;2022-11-23T14:59:38;7.80;99.90
14049;DHT22;7099;53.922;10.728;2022-11-23T15:03:55;7.90;99.90
14049;DHT22;7099;53.922;10.728;2022-11-23T15:08:04;7.90;99.90
14049;DHT22;7099;53.922;10.728;2022-11-23T15:12:39;7.80;99.90
14049;DHT22;7099;53.922;10.728;2022-11-23T15:16:46;7.80;99.90
14049;DHT22;7099;53.922;10.728;2022-11-23T15:20:53;7.70;99.90
14049;DHT22;7099;53.922;10.728;2022-11-23T15:25:12;7.70;99.90
14049;DHT22;7099;53.922;10.728;2022-11-23T15:29:36;7.70;99.90
14049;DHT22;7099;53.922;10.728;2022-11-23T15:33:50;7.70;99.90
14049;DHT22;7099;53.922;10.728;2022-11-23T15:37:59;7.70;99.90
14049;DHT22;7099;53.922;10.728;2022-11-23T15:42:05;7.60;99.90
14049;DHT22;7099;53.922;10.728;2022-11-23T15:46:10;7.60;99.90
14049;DHT22;7099;53.922;10.728;2022-11-23T15:50:17;7.50;99.90
14049;DHT22;7099;53.922;10.728;2022-11-23T15:54:25;7.40;99.90
14049;DHT22;7099;53.922;10.728;2022-11-23T15:58:32;7.40;99.90
14049;DHT22;7099;53.922;10.728;2022-11-23T16:02:38;7.30;99.90
14049;DHT22;7099;53.922;10.728;2022-11-23T16:06:47;7.30;99.90
14049;DHT22;7099;53.922;10.728;2022-11-23T16:10:53;7.20;99.90
14049;DHT22;7099;53.922;10.728;2022-11-23T16:19:49;7.10;99.90
14049;DHT22;7099;53.922;10.728;2022-11-23T16:23:55;7.00;99.90
14049;DHT22;7099;53.922;10.728;2022-11-23T16:28:16;7.30;99.90
14049;DHT22;7099;53.922;10.728;2022-11-23T16:32:29;7.10;99.90
14049;DHT22;7099;53.922;10.728;2022-11-23T16:36:35;6.90;99.90
14049;DHT22;7099;53.922;10.728;2022-11-23T16:40:40;6.90;99.90
14049;DHT22;7099;53.922;10.728;2022-11-23T16:44:46;6.80;99.90
14049;DHT22;7099;53.922;10.728;2022-11-23T16:48:51;6.70;99.90
14049;DHT22;7099;53.922;10.728;2022-11-23T16:53:14;6.70;99.90
14049;DHT22;7099;53.922;10.728;2022-11-23T16:57:28;6.70;99.90
14049;DHT22;7099;53.922;10.728;2022-11-23T17:01:35;6.60;99.90
14049;DHT22;7099;53.922;10.728;2022-11-23T17:05:41;6.50;99.90
14049;DHT22;7099;53.922;10.728;2022-11-23T17:09:46;6.50;99.90
14049;DHT22;7099;53.922;10.728;2022-11-23T17:13:53;6.50;99.90
14049;DHT22;7099;53.922;10.728;2022-11-23T17:17:59;6.40;99.90
14049;DHT22;7099;53.922;10.728;2022-11-23T17:22:04;6.30;99.90
14049;DHT22;7099;53.922;10.728;2022-11-23T17:26:32;6.30;99.90
14049;DHT22;7099;53.922;10.728;2022-11-23T17:30:39;6.30;99.90
14049;DHT22;7099;53.922;10.728;2022-11-23T17:34:44;6.20;99.90
14049;DHT22;7099;53.922;10.728;2022-11-23T17:38:48;6.20;99.90
14049;DHT22;7099;53.922;10.728;2022-11-23T17:42:53;6.20;99.90
14049;DHT22;7099;53.922;10.728;2022-11-23T17:46:59;6.20;99.90
14049;DHT22;7099;53.922;10.728;2022-11-23T17:51:04;6.20;99.90
14049;DHT22;7099;53.922;10.728;2022-11-23T17:55:10;6.20;99.90
14049;DHT22;7099;53.922;10.728;2022-11-23T17:59:17;6.20;99.90
14049;DHT22;7099;53.922;10.728;2022-11-23T18:03:22;6.20;99.90
14049;DHT22;7099;53.922;10.728;2022-11-23T18:07:27;6.20;99.90
14049;DHT22;7099;53.922;10.728;2022-11-23T18:11:32;6.20;99.90
14049;DHT22;7099;53.922;10.728;2022-11-23T18:15:37;6.20;99.90
14049;DHT22;7099;53.922;10.728;2022-11-23T18:19:42;6.10;99.90
14049;DHT22;7099;53.922;10.728;2022-11-23T18:23:47;6.10;99.90
14049;DHT22;7099;53.922;10.728;2022-11-23T18:27:52;6.00;99.90
14049;DHT22;7099;53.922;10.728;2022-11-23T18:31:57;5.90;99.90
14049;DHT22;7099;53.922;10.728;2022-11-23T18:36:03;6.00;99.90
14049;DHT22;7099;53.922;10.728;2022-11-23T18:40:09;5.90;99.90
14049;DHT22;7099;53.922;10.728;2022-11-23T18:44:15;5.90;99.90
14049;DHT22;7099;53.922;10.728;2022-11-23T18:48:20;5.90;99.90
14049;DHT22;7099;53.922;10.728;2022-11-23T18:52:25;5.80;99.90
14049;DHT22;7099;53.922;10.728;2022-11-23T18:56:30;5.80;99.90
14049;DHT22;7099;53.922;10.728;2022-11-23T19:00:35;5.70;99.90
14049;DHT22;7099;53.922;10.728;2022-11-23T19:04:40;5.70;99.90
14049;DHT22;7099;53.922;10.728;2022-11-23T19:08:47;5.70;99.90
14049;DHT22;7099;53.922;10.728;2022-11-23T19:12:53;5.60;99.90
14049;DHT22;7099;53.922;10.728;2022-11-23T19:16:58;5.60;99.90
14049;DHT22;7099;53.922;10.728;2022-11-23T19:21:17;5.50;99.90
14049;DHT22;7099;53.922;10.728;2022-11-23T19:25:23;5.50;99.90
14049;DHT22;7099;53.922;10.728;2022-11-23T19:29:28;5.50;99.90
14049;DHT22;7099;53.922;10.728;2022-11-23T19:33:33;5.40;99.90
14049;DHT22;7099;53.922;10.728;2022-11-23T19:37:38;5.40;99.90
14049;DHT22;7099;53.922;10.728;2022-11-23T19:41:43;5.40;99.90
14049;DHT22;7099;53.922;10.728;2022-11-23T19:45:58;5.30;99.90
14049;DHT22;7099;53.922;10.728;2022-11-23T19:50:05;5.30;99.90
14049;DHT22;7099;53.922;10.728;2022-11-23T19:54:10;5.30;99.90
14049;DHT22;7099;53.922;10.728;2022-11-23T19:58:15;5.20;99.90
14049;DHT22;7099;53.922;10.728;2022-11-23T20:02:23;5.20;99.90
14049;DHT22;7099;53.922;10.728;2022-11-23T20:06:32;5.20;99.90
14049;DHT22;7099;53.922;10.728;2022-11-23T20:10:37;5.10;99.90
14049;DHT22;7099;53.922;10.728;2022-11-23T20:14:42;5.10;99.90
14049;DHT22;7099;53.922;10.728;2022-11-23T20:18:47;5.10;99.90
14049;DHT22;7099;53.922;10.728;2022-11-23T20:22:58;5.10;99.90
14049;DHT22;7099;53.922;10.728;2022-11-23T20:27:03;5.10;99.90
14049;DHT22;7099;53.922;10.728;2022-11-23T20:31:14;5.10;99.90
14049;DHT22;7099;53.922;10.728;2022-11-23T20:35:24;5.10;99.90
14049;DHT22;7099;53.922;10.728;2022-11-23T20:39:29;5.10;99.90
14049;DHT22;7099;53.922;10.728;2022-11-23T20:43:33;5.10;99.90
14049;DHT22;7099;53.922;10.728;2022-11-23T20:47:38;5.10;99.90
14049;DHT22;7099;53.922;10.728;2022-11-23T20:51:43;5.10;99.90
14049;DHT22;7099;53.922;10.728;2022-11-23T20:55:48;5.10;99.90
14049;DHT22;7099;53.922;10.728;2022-11-23T20:59:53;5.10;99.90
14049;DHT22;7099;53.922;10.728;2022-11-23T21:03:58;5.10;99.90
14049;DHT22;7099;53.922;10.728;2022-11-23T21:08:03;5.10;99.90
14049;DHT22;7099;53.922;10.728;2022-11-23T21:12:08;5.10;99.90
14049;DHT22;7099;53.922;10.728;2022-11-23T21:16:41;5.00;99.90
14049;DHT22;7099;53.922;10.728;2022-11-23T21:20:53;5.00;99.90
14049;DHT22;7099;53.922;10.728;2022-11-23T21:24:58;5.00;99.90
14049;DHT22;7099;53.922;10.728;2022-11-23T21:29:03;5.00;99.90
14049;DHT22;7099;53.922;10.728;2022-11-23T21:33:13;5.00;99.90
14049;DHT22;7099;53.922;10.728;2022-11-23T21:37:17;4.90;99.90
14049;DHT22;7099;53.922;10.728;2022-11-23T21:41:22;4.90;99.90
14049;DHT22;7099;53.922;10.728;2022-11-23T21:45:27;4.90;99.90
14049;DHT22;7099;53.922;10.728;2022-11-23T21:49:32;4.90;99.90
14049;DHT22;7099;53.922;10.728;2022-11-23T21:53:37;4.80;99.90
14049;DHT22;7099;53.922;10.728;2022-11-23T21:57:42;4.80;99.90
14049;DHT22;7099;53.922;10.728;2022-11-23T22:01:47;4.80;99.90
14049;DHT22;7099;53.922;10.728;2022-11-23T22:05:56;4.80;99.90
14049;DHT22;7099;53.922;10.728;2022-11-23T22:10:02;4.70;99.90
14049;DHT22;7099;53.922;10.728;2022-11-23T22:14:09;4.70;99.90
14049;DHT22;7099;53.922;10.728;2022-11-23T22:18:16;4.70;99.90
14049;DHT22;7099;53.922;10.728;2022-11-23T22:22:21;4.70;99.90
14049;DHT22;7099;53.922;10.728;2022-11-23T22:26:26;4.70;99.90
14049;DHT22;7099;53.922;10.728;2022-11-23T22:30:31;4.70;99.90
14049;DHT22;7099;53.922;10.728;2022-11-23T22:34:36;4.70;99.90
14049;DHT22;7099;53.922;10.728;2022-11-23T22:38:43;4.70;99.90
14049;DHT22;7099;53.922;10.728;2022-11-23T22:42:48;4.60;99.90
14049;DHT22;7099;53.922;10.728;2022-11-23T22:46:53;4.60;99.90
14049;DHT22;7099;53.922;10.728;2022-11-23T22:50:59;4.60;99.90
14049;DHT22;7099;53.922;10.728;2022-11-23T22:55:05;4.60;99.90
14049;DHT22;7099;53.922;10.728;2022-11-23T22:59:10;4.60;99.90
14049;DHT22;7099;53.922;10.728;2022-11-23T23:03:15;4.60;99.90
14049;DHT22;7099;53.922;10.728;2022-11-23T23:07:20;4.60;99.90
14049;DHT22;7099;53.922;10.728;2022-11-23T23:11:28;4.50;99.90
14049;DHT22;7099;53.922;10.728;2022-11-23T23:15:33;4.60;99.90
14049;DHT22;7099;53.922;10.728;2022-11-23T23:19:38;4.60;99.90
14049;DHT22;7099;53.922;10.728;2022-11-23T23:23:45;4.60;99.90
14049;DHT22;7099;53.922;10.728;2022-11-23T23:27:52;4.60;99.90
14049;DHT22;7099;53.922;10.728;2022-11-23T23:31:57;4.50;99.90
14049;DHT22;7099;53.922;10.728;2022-11-23T23:36:16;4.50;99.90
14049;DHT22;7099;53.922;10.728;2022-11-23T23:40:23;4.50;99.90
14049;DHT22;7099;53.922;10.728;2022-11-23T23:44:28;4.40;99.90
14049;DHT22;7099;53.922;10.728;2022-11-23T23:48:37;4.40;99.90
14049;DHT22;7099;53.922;10.728;2022-11-23T23:52:44;4.40;99.90
14049;DHT22;7099;53.922;10.728;2022-11-23T23:56:51;4.30;99.90
